Time;durP1;ratioP1;P1;durP2;ratioP2;P2;SDS_P1;SDS_P2;PMS_P1;PMS_P2;Temp;Humidity;BMP_temperature;BMP_pressure;BME280_temperature;BME280_humidity;BME280_pressure;Samples;Min_cycle;Max_cycle;Signal;HPM_P1;HPM_P2
2023/05/18 00:02:20;;;;;;;8.27;3.60;;;;;;;-143.21;100.00;71986.91;5110077;28;20594;-76
2023/05/18 00:04:47;;;;;;;5.47;3.23;;;;;;;-143.21;100.00;71982.94;5107052;28;20204;-76
2023/05/18 00:07:15;;;;;;;3.77;3.10;;;;;;;-143.21;100.00;71977.00;5106717;28;20203;-76
2023/05/18 00:09:42;;;;;;;4.63;2.50;;;;;;;-143.21;100.00;71978.97;5110167;28;20228;-77
2023/05/18 00:12:09;;;;;;;5.70;2.83;;;;;;;-143.21;100.00;71990.88;5109785;28;20208;-77
2023/05/18 00:14:36;;;;;;;3.00;2.70;;;;;;;-143.21;100.00;71990.88;5109898;28;20314;-76
2023/05/18 00:17:03;;;;;;;4.10;2.57;;;;;;;-143.21;100.00;71992.88;5110262;28;20199;-77
2023/05/18 00:19:33;;;;;;;4.97;2.47;;;;;;;-143.21;100.00;72014.69;5109355;28;20235;-76
2023/05/18 00:22:01;;;;;;;4.13;2.70;;;;;;;-143.21;100.00;72048.38;5109635;28;20200;-77
2023/05/18 00:24:29;;;;;;;6.47;3.00;;;;;;;-143.21;100.00;72066.22;5109778;28;20203;-76
2023/05/18 00:26:56;;;;;;;5.07;2.87;;;;;;;-143.21;100.00;72070.19;5110037;28;20204;-75
2023/05/18 00:29:23;;;;;;;3.23;2.87;;;;;;;-143.21;100.00;72074.16;5109080;28;20230;-76
2023/05/18 00:31:49;;;;;;;3.00;2.50;;;;;;;-143.21;100.00;72068.22;5108933;28;20211;-76
2023/05/18 00:34:17;;;;;;;3.17;2.40;;;;;;;-143.21;100.00;72064.25;5109067;28;20200;-76
2023/05/18 00:36:43;;;;;;;6.67;2.70;;;;;;;-143.21;100.00;72054.34;5109269;28;20200;-76
2023/05/18 00:39:11;;;;;;;2.43;2.10;;;;;;;-143.21;100.00;72048.38;5109454;28;20192;-78
2023/05/18 00:41:39;;;;;;;5.50;2.43;;;;;;;-143.21;100.00;72042.44;5109286;28;20304;-76
2023/05/18 00:44:06;;;;;;;3.27;2.30;;;;;;;-143.21;100.00;72044.41;5109077;28;20207;-76
2023/05/18 00:46:33;;;;;;;2.63;1.90;;;;;;;-143.21;100.00;72034.50;5109304;28;20207;-76
2023/05/18 00:49:01;;;;;;;3.17;2.00;;;;;;;-143.21;100.00;72032.53;5109388;28;20228;-76
2023/05/18 00:51:29;;;;;;;3.80;1.73;;;;;;;-143.21;100.00;72028.56;5109633;28;20624;-76
2023/05/18 00:53:57;;;;;;;2.10;1.70;;;;;;;-143.21;100.00;72024.59;5109236;28;20204;-76
2023/05/18 00:56:25;;;;;;;2.00;1.57;;;;;;;-143.21;100.00;72020.63;5108522;28;20214;-76
2023/05/18 00:58:55;;;;;;;1.77;1.40;;;;;;;-143.21;100.00;72024.59;5109667;28;20298;-76
2023/05/18 01:01:28;;;;;;;3.60;1.77;;;;;;;-143.21;100.00;72012.69;5109512;28;20216;-76
2023/05/18 01:03:55;;;;;;;2.50;2.30;;;;;;;-143.21;100.00;72016.66;5109266;28;20283;-75
2023/05/18 01:06:24;;;;;;;3.93;2.30;;;;;;;-143.21;100.00;72016.66;5108824;28;20341;-76
2023/05/18 01:08:52;;;;;;;5.53;2.53;;;;;;;-143.21;100.00;72018.63;5109125;28;20224;-76
2023/05/18 01:11:26;;;;;;;3.93;2.60;;;;;;;-143.21;100.00;72010.72;5108602;28;20730;-76
2023/05/18 01:14:03;;;;;;;4.67;2.40;;;;;;;-143.21;100.00;72008.72;5106562;28;20207;-76
2023/05/18 01:16:36;;;;;;;3.90;2.60;;;;;;;-143.21;100.00;72010.72;5109012;28;20192;-76
2023/05/18 01:19:15;;;;;;;4.73;2.53;;;;;;;-143.21;100.00;72026.56;5109329;28;20747;-76
2023/05/18 01:22:20;;;;;;;3.67;2.63;;;;;;;-143.21;100.00;72046.41;5109282;28;20227;-77
2023/05/18 01:24:58;;;;;;;6.00;3.07;;;;;;;-143.21;100.00;72046.41;5105595;28;20227;-77
2023/05/18 01:27:41;;;;;;;6.60;3.40;;;;;;;-143.21;100.00;72052.34;5106727;28;20195;-77
2023/05/18 01:30:09;;;;;;;5.43;3.30;;;;;;;-143.21;100.00;72050.38;5109374;28;20598;-77
2023/05/18 01:32:40;;;;;;;7.20;3.03;;;;;;;-143.21;100.00;72046.41;5109025;28;20208;-77
2023/05/18 01:35:07;;;;;;;6.00;3.20;;;;;;;-143.21;100.00;72040.44;5109454;28;20215;-77
2023/05/18 01:37:34;;;;;;;5.10;2.73;;;;;;;-143.21;100.00;72030.53;5109282;28;20196;-77
2023/05/18 01:40:02;;;;;;;3.40;2.10;;;;;;;-143.21;100.00;72026.56;5109074;28;20634;-77
2023/05/18 01:42:38;;;;;;;2.50;2.20;;;;;;;-143.21;100.00;72028.56;5109003;28;20207;-75
2023/05/18 01:45:09;;;;;;;4.73;2.03;;;;;;;-143.21;100.00;72034.50;5108645;28;20689;-75
2023/05/18 01:47:40;;;;;;;3.23;2.47;;;;;;;-143.21;100.00;72082.09;5109448;28;20204;-75
2023/05/18 01:50:13;;;;;;;2.33;2.10;;;;;;;-143.21;100.00;72103.91;5108742;28;20247;-75
2023/05/18 01:52:44;;;;;;;2.70;2.40;;;;;;;-143.21;100.00;72094.00;5108220;28;20203;-75
2023/05/18 01:55:15;;;;;;;2.97;2.63;;;;;;;-143.21;100.00;72097.97;5108490;28;20204;-74
2023/05/18 01:57:46;;;;;;;3.43;2.70;;;;;;;-143.21;100.00;72097.97;5108908;28;20199;-75
2023/05/18 02:00:15;;;;;;;4.57;3.10;;;;;;;-143.21;100.00;72078.13;5108437;28;20203;-75
2023/05/18 02:02:42;;;;;;;5.57;4.57;;;;;;;-143.21;100.00;72070.19;5108457;28;20204;-76
2023/05/18 02:05:11;;;;;;;19.53;15.10;;;;;;;-143.21;100.00;72048.38;5108698;28;20239;-75
2023/05/18 02:07:38;;;;;;;26.27;20.20;;;;;;;-143.21;100.00;72046.41;5109940;28;20219;-75
2023/05/18 02:10:05;;;;;;;24.97;18.53;;;;;;;-143.21;100.00;72034.50;5112582;28;20223;-76
2023/05/18 02:12:32;;;;;;;11.73;8.63;;;;;;;-143.21;100.00;72046.41;5112906;28;20226;-76
2023/05/18 02:15:04;;;;;;;12.63;9.10;;;;;;;-143.21;100.00;72046.41;5112266;28;20682;-75
2023/05/18 02:17:31;;;;;;;9.80;7.83;;;;;;;-143.21;100.00;72042.44;5112294;28;20199;-76
2023/05/18 02:19:58;;;;;;;5.90;5.07;;;;;;;-143.21;100.00;72034.50;5112199;28;20204;-75
2023/05/18 02:22:25;;;;;;;7.77;5.17;;;;;;;-143.21;100.00;72024.59;5112002;28;20252;-75
2023/05/18 02:24:52;;;;;;;5.27;4.33;;;;;;;-143.21;100.00;72016.66;5111918;28;20362;-76
2023/05/18 02:27:19;;;;;;;3.90;3.50;;;;;;;-143.21;100.00;72018.63;5111901;28;20287;-76
2023/05/18 02:29:46;;;;;;;5.23;3.53;;;;;;;-143.21;100.00;72022.59;5112706;28;20216;-76
2023/05/18 02:32:14;;;;;;;5.03;2.33;;;;;;;-143.21;100.00;72022.59;5112292;28;20204;-76
2023/05/18 02:34:41;;;;;;;3.40;2.37;;;;;;;-143.21;100.00;72036.50;5111955;28;20253;-76
2023/05/18 02:37:09;;;;;;;4.00;2.83;;;;;;;-143.21;100.00;72042.44;5112024;28;20291;-76
2023/05/18 02:39:36;;;;;;;4.80;2.70;;;;;;;-143.21;100.00;72032.53;5112111;28;20935;-76
2023/05/18 02:42:03;;;;;;;3.73;2.40;;;;;;;-143.21;100.00;72024.59;5111927;28;20200;-76
2023/05/18 02:44:29;;;;;;;3.70;2.40;;;;;;;-143.21;100.00;72020.63;5112227;28;20591;-77
2023/05/18 02:46:56;;;;;;;3.33;2.33;;;;;;;-143.21;100.00;72024.59;5111914;28;20215;-76
2023/05/18 02:49:24;;;;;;;3.20;2.60;;;;;;;-143.21;100.00;72036.50;5112495;28;20545;-75
2023/05/18 02:51:51;;;;;;;4.60;2.40;;;;;;;-143.21;100.00;72042.44;5112879;28;20204;-76
2023/05/18 02:54:18;;;;;;;2.87;2.43;;;;;;;-143.21;100.00;72040.44;5111758;28;20674;-77
2023/05/18 02:56:45;;;;;;;3.13;2.53;;;;;;;-143.21;100.00;72046.41;5108300;28;20570;-77
2023/05/18 02:59:11;;;;;;;4.83;2.80;;;;;;;-143.21;100.00;72054.34;5112046;28;20196;-77
2023/05/18 03:01:39;;;;;;;4.17;2.50;;;;;;;-143.21;100.00;72050.38;5111780;27;20843;-77
2023/05/18 03:04:06;;;;;;;5.13;2.70;;;;;;;-143.21;100.00;72066.22;5111048;28;20368;-77
2023/05/18 03:06:34;;;;;;;3.77;2.57;;;;;;;-143.21;100.00;72080.13;5112614;28;20200;-81
2023/05/18 03:09:01;;;;;;;2.67;2.20;;;;;;;-143.21;100.00;72109.84;5112723;28;20212;-81
2023/05/18 03:11:28;;;;;;;2.53;2.30;;;;;;;-143.21;100.00;72147.53;5112846;28;20215;-82
2023/05/18 03:13:55;;;;;;;2.47;2.27;;;;;;;-143.21;100.00;72167.38;5110969;28;20207;-81
2023/05/18 03:16:27;;;;;;;3.50;2.93;;;;;;;-143.21;100.00;72177.28;5111440;28;20208;-81
2023/05/18 03:18:54;;;;;;;3.00;2.70;;;;;;;-143.21;100.00;72169.34;5111803;28;20238;-81
2023/05/18 03:21:20;;;;;;;5.53;3.10;;;;;;;-143.21;100.00;72169.34;5112001;28;20206;-81
2023/05/18 03:23:49;;;;;;;3.83;3.10;;;;;;;-143.21;100.00;72161.41;5112629;28;20200;-81
2023/05/18 03:26:15;;;;;;;4.63;3.30;;;;;;;-143.21;100.00;72157.44;5109125;28;20207;-83
2023/05/18 03:28:42;;;;;;;6.00;3.50;;;;;;;-143.21;100.00;72155.47;5112862;28;20192;-83
2023/05/18 03:31:09;;;;;;;6.70;3.80;;;;;;;-143.21;100.00;72163.41;5112351;28;20231;-83
2023/05/18 03:33:36;;;;;;;8.10;3.90;;;;;;;-143.21;100.00;72165.38;5112506;28;20292;-84
2023/05/18 03:36:04;;;;;;;4.13;3.73;;;;;;;-143.21;100.00;72157.44;5112222;28;20269;-84
2023/05/18 03:38:31;;;;;;;4.93;4.03;;;;;;;-143.21;100.00;72159.44;5112301;28;20207;-83
2023/05/18 03:41:00;;;;;;;5.40;3.90;;;;;;;-143.21;100.00;72165.38;5112193;28;20245;-83
2023/05/18 03:43:28;;;;;;;4.93;3.73;;;;;;;-143.21;100.00;72165.38;5112372;28;20204;-84
2023/05/18 03:45:55;;;;;;;4.60;3.93;;;;;;;-143.21;100.00;72167.38;5112591;28;20196;-83
2023/05/18 03:48:22;;;;;;;5.57;4.40;;;;;;;-143.21;100.00;72179.25;5112205;28;20204;-85
2023/05/18 03:50:49;;;;;;;7.90;5.13;;;;;;;-143.21;100.00;72177.28;5112159;28;20216;-84
2023/05/18 03:53:22;;;;;;;7.93;5.73;;;;;;;-143.21;100.00;72169.34;5109173;28;20214;-83
2023/05/18 03:55:50;;;;;;;6.97;5.50;;;;;;;-143.21;100.00;72173.31;5111746;28;20210;-82
2023/05/18 03:58:19;;;;;;;8.00;5.23;;;;;;;-143.21;100.00;72163.41;5112059;28;20200;-83
2023/05/18 04:00:46;;;;;;;6.43;5.07;;;;;;;-143.21;100.00;72167.38;5108417;28;20326;-84
2023/05/18 04:03:13;;;;;;;5.30;4.77;;;;;;;-143.21;100.00;72169.34;5107273;28;20214;-81
2023/05/18 04:05:42;;;;;;;6.10;5.00;;;;;;;-143.21;100.00;72175.31;5110043;27;20200;-76
2023/05/18 04:08:13;;;;;;;5.30;4.67;;;;;;;-143.21;100.00;72169.34;5110776;28;20281;-77
2023/05/18 04:10:39;;;;;;;6.93;5.20;;;;;;;-143.21;100.00;72165.38;5110179;28;20765;-76
2023/05/18 04:13:06;;;;;;;7.50;5.00;;;;;;;-143.21;100.00;72157.44;5109604;28;20592;-78
2023/05/18 04:15:35;;;;;;;8.03;5.57;;;;;;;-143.21;100.00;72161.41;5109771;28;20218;-77
2023/05/18 04:18:02;;;;;;;8.73;5.90;;;;;;;-143.21;100.00;72153.47;5109808;28;20223;-77
2023/05/18 04:20:28;;;;;;;9.57;5.80;;;;;;;-143.21;100.00;72157.44;5109116;28;20636;-77
2023/05/18 04:22:57;;;;;;;8.07;4.93;;;;;;;-143.21;100.00;72155.47;5109052;28;20239;-77
2023/05/18 04:25:26;;;;;;;8.63;5.03;;;;;;;-143.21;100.00;72153.47;5109651;28;20235;-77
2023/05/18 04:27:54;;;;;;;10.87;7.23;;;;;;;-143.21;100.00;72147.53;5110765;28;20629;-81
2023/05/18 04:30:22;;;;;;;11.83;8.97;;;;;;;-143.21;100.00;72153.47;5110187;28;20223;-80
2023/05/18 04:32:50;;;;;;;14.10;7.10;;;;;;;-143.21;100.00;72171.34;5111183;28;20195;-80
2023/05/18 04:35:17;;;;;;;8.13;5.87;;;;;;;-143.21;100.00;72187.19;5108066;28;20204;-80
2023/05/18 04:37:45;;;;;;;7.03;5.40;;;;;;;-143.21;100.00;72183.22;5110869;28;20655;-81
2023/05/18 04:40:12;;;;;;;8.23;6.57;;;;;;;-143.21;100.00;72177.28;5113863;28;20205;-79
2023/05/18 04:42:43;;;;;;;9.73;6.87;;;;;;;-143.21;100.00;72163.41;5110893;28;20686;-78
2023/05/18 04:45:15;;;;;;;8.33;6.40;;;;;;;-143.21;100.00;72147.53;5111264;28;20293;-78
2023/05/18 04:47:45;;;;;;;9.93;6.77;;;;;;;-143.21;100.00;72133.66;5110577;28;20200;-78
2023/05/18 04:50:14;;;;;;;11.57;6.90;;;;;;;-143.21;100.00;72119.78;5110048;28;20219;-78
2023/05/18 04:52:47;;;;;;;10.03;6.93;;;;;;;-143.21;100.00;72113.81;5110465;28;20200;-79
2023/05/18 04:55:15;;;;;;;10.60;6.60;;;;;;;-143.21;100.00;72113.81;5107449;28;20234;-79
2023/05/18 04:57:43;;;;;;;11.97;7.83;;;;;;;-143.21;100.00;72103.91;5111138;28;20294;-79
2023/05/18 05:00:11;;;;;;;13.30;9.87;;;;;;;-143.21;100.00;72127.72;5111065;28;20192;-79
2023/05/18 05:02:39;;;;;;;14.97;10.83;;;;;;;-143.21;100.00;72131.69;5111340;28;20214;-79
2023/05/18 05:05:07;;;;;;;17.03;10.93;;;;;;;-143.21;100.00;72141.59;5111460;28;20250;-79
2023/05/18 05:07:35;;;;;;;13.73;9.00;;;;;;;-143.21;100.00;72141.59;5111381;28;20204;-79
2023/05/18 05:10:02;;;;;;;12.37;9.30;;;;;;;-143.21;100.00;72145.56;5110236;28;20584;-80
2023/05/18 05:12:29;;;;;;;13.80;9.20;;;;;;;-143.21;100.00;72147.53;5110142;28;20290;-79
2023/05/18 05:14:56;;;;;;;15.60;8.53;;;;;;;-143.21;100.00;72145.56;5110757;28;20211;-78
2023/05/18 05:17:24;;;;;;;11.37;8.47;;;;;;;-143.21;100.00;72143.56;5110383;28;20204;-78
2023/05/18 05:19:50;;;;;;;11.97;8.20;;;;;;;-143.21;100.00;72135.63;5109865;28;20231;-78
2023/05/18 05:22:18;;;;;;;11.40;8.50;;;;;;;-143.21;100.00;72125.72;5110114;28;20200;-79
2023/05/18 05:24:46;;;;;;;11.50;8.93;;;;;;;-143.21;100.00;72113.81;5107306;28;20196;-77
2023/05/18 05:27:13;;;;;;;11.60;9.07;;;;;;;-143.21;100.00;72113.81;5109453;28;20204;-76
2023/05/18 05:29:40;;;;;;;10.07;8.07;;;;;;;-143.21;100.00;72107.88;5108684;28;20204;-76
2023/05/18 05:32:07;;;;;;;11.23;8.90;;;;;;;-143.21;100.00;72113.81;5108855;28;20208;-76
2023/05/18 05:34:34;;;;;;;11.77;8.40;;;;;;;-143.21;100.00;72103.91;5108842;28;20192;-77
2023/05/18 05:37:01;;;;;;;10.77;8.47;;;;;;;-143.21;100.00;72097.97;5108459;28;20211;-79
2023/05/18 05:39:28;;;;;;;13.03;8.40;;;;;;;-143.21;100.00;72107.88;5108086;28;20199;-77
2023/05/18 05:41:56;;;;;;;15.27;9.07;;;;;;;-143.21;100.00;72109.84;5110489;28;20615;-77
2023/05/18 05:44:23;;;;;;;14.53;11.20;;;;;;;-143.21;100.00;72123.75;5113152;28;20230;-77
2023/05/18 05:46:50;;;;;;;16.17;12.57;;;;;;;-143.21;100.00;72153.47;5112721;28;20207;-77
2023/05/18 05:49:17;;;;;;;14.27;10.90;;;;;;;-143.21;100.00;72181.25;5113006;28;20647;-77
2023/05/18 05:51:44;;;;;;;12.43;9.73;;;;;;;-143.21;100.00;72193.16;5113235;28;20240;-77
2023/05/18 05:54:10;;;;;;;14.83;10.83;;;;;;;-143.21;100.00;72181.25;5112310;28;20751;-76
2023/05/18 05:56:37;;;;;;;15.80;11.53;;;;;;;-143.21;100.00;72173.31;5112686;28;20215;-77
2023/05/18 05:59:05;;;;;;;23.77;14.67;;;;;;;-143.21;100.00;72169.34;5112666;28;20200;-78
2023/05/18 06:01:33;;;;;;;22.17;15.27;;;;;;;-143.21;100.00;72163.41;5112308;28;20282;-78
2023/05/18 06:04:00;;;;;;;22.20;15.57;;;;;;;-143.21;100.00;72149.53;5112802;28;20264;-76
2023/05/18 06:06:29;;;;;;;13.63;9.03;;;;;;;-143.21;100.00;72151.50;5112313;28;20238;-77
2023/05/18 06:08:56;;;;;;;12.37;8.73;;;;;;;-143.21;100.00;72157.44;5112270;28;20200;-77
2023/05/18 06:11:25;;;;;;;10.33;7.10;;;;;;;-143.21;100.00;72163.41;5112562;28;20223;-77
2023/05/18 06:13:52;;;;;;;9.30;7.13;;;;;;;-143.21;100.00;72165.38;5113096;28;20210;-78
2023/05/18 06:16:22;;;;;;;15.63;7.97;;;;;;;-143.21;100.00;72161.41;5112900;27;20211;-77
2023/05/18 06:18:48;;;;;;;12.63;8.23;;;;;;;-143.21;100.00;72155.47;5112044;28;20227;-77
2023/05/18 06:21:15;;;;;;;11.17;8.53;;;;;;;-143.21;100.00;72145.56;5112354;28;20223;-76
2023/05/18 06:23:44;;;;;;;9.97;7.23;;;;;;;-143.21;100.00;72135.63;5112277;28;20200;-76
2023/05/18 06:26:11;;;;;;;13.63;7.37;;;;;;;-143.21;100.00;72133.66;5112325;28;20231;-76
2023/05/18 06:28:38;;;;;;;10.40;7.40;;;;;;;-143.21;100.00;72137.63;5112142;28;21177;-76
2023/05/18 06:31:05;;;;;;;9.03;7.20;;;;;;;-143.21;100.00;72139.59;5113210;28;20220;-77
2023/05/18 06:33:34;;;;;;;9.87;7.47;;;;;;;-143.21;100.00;72145.56;5113586;28;20260;-76
2023/05/18 06:36:01;;;;;;;11.33;7.40;;;;;;;-143.21;100.00;72143.56;5112602;28;20253;-76
2023/05/18 06:38:30;;;;;;;8.60;5.80;;;;;;;-143.21;100.00;72139.59;5113271;28;20273;-76
2023/05/18 06:40:57;;;;;;;9.57;6.80;;;;;;;-143.21;100.00;72143.56;5112521;28;20230;-76
2023/05/18 06:43:25;;;;;;;13.53;9.73;;;;;;;-143.21;100.00;72151.50;5111790;28;20204;-76
2023/05/18 06:45:52;;;;;;;24.20;15.80;;;;;;;-143.21;100.00;72153.47;5112435;28;20204;-77
2023/05/18 06:48:19;;;;;;;24.40;20.13;;;;;;;-143.21;100.00;72161.41;5112340;28;20516;-82
2023/05/18 06:50:48;;;;;;;29.30;22.23;;;;;;;-143.21;100.00;72167.38;5113076;28;20220;-82
2023/05/18 06:53:14;;;;;;;20.63;14.13;;;;;;;-143.21;100.00;72163.41;5108281;28;20204;-82
2023/05/18 06:55:41;;;;;;;12.97;10.10;;;;;;;-143.21;100.00;72153.47;5112327;28;20557;-81
2023/05/18 06:58:08;;;;;;;16.60;10.43;;;;;;;-143.21;100.00;72147.53;5112446;28;20203;-82
2023/05/18 07:00:35;;;;;;;14.63;10.03;;;;;;;-143.21;100.00;72129.69;5113253;28;20208;-81
2023/05/18 07:03:02;;;;;;;17.93;13.07;;;;;;;-143.21;100.00;72137.63;5113009;28;20654;-82
2023/05/18 07:05:29;;;;;;;17.47;13.90;;;;;;;-143.21;100.00;72127.72;5112831;28;20580;-81
2023/05/18 07:08:18;;;;;;;18.70;12.70;;;;;;;-143.21;100.00;72129.69;5119942;28;20290;-81
2023/05/18 07:10:45;;;;;;;18.17;13.50;;;;;;;-143.21;100.00;72121.75;5120884;28;20223;-82
2023/05/18 07:13:12;;;;;;;15.37;11.80;;;;;;;-143.21;100.00;72119.78;5115861;28;20207;-82
2023/05/18 07:15:39;;;;;;;15.33;12.00;;;;;;;-143.21;100.00;72111.84;5112807;28;20227;-82
2023/05/18 07:18:06;;;;;;;14.43;10.90;;;;;;;-143.21;100.00;72107.88;5113033;28;20721;-83
2023/05/18 07:20:33;;;;;;;15.00;10.43;;;;;;;-143.21;99.87;72107.88;5113080;28;20677;-80
2023/05/18 07:23:00;;;;;;;16.97;10.47;;;;;;;-143.21;100.00;72133.66;5113375;28;20779;-83
2023/05/18 07:25:28;;;;;;;14.67;10.53;;;;;;;-143.21;100.00;72173.31;5114084;28;20249;-81
2023/05/18 07:27:55;;;;;;;14.07;10.50;;;;;;;-143.21;100.00;72209.00;5113522;28;20206;-81
2023/05/18 07:30:22;;;;;;;16.70;11.27;;;;;;;-143.21;100.00;72212.97;5112980;28;20283;-82
2023/05/18 07:32:50;;;;;;;17.53;11.67;;;;;;;-143.21;100.00;72195.13;5112775;28;20200;-82
2023/05/18 07:35:18;;;;;;;18.07;12.03;;;;;;;-143.21;100.00;72183.22;5112438;28;20188;-83
2023/05/18 07:37:45;;;;;;;18.70;12.30;;;;;;;-143.21;100.00;72163.41;5112188;28;20200;-83
2023/05/18 07:40:12;;;;;;;16.53;12.33;;;;;;;-143.21;100.00;72165.38;5112030;28;20203;-82
2023/05/18 07:42:41;;;;;;;18.67;12.03;;;;;;;-143.21;100.00;72165.38;5112211;28;20682;-83
2023/05/18 07:45:09;;;;;;;20.17;11.87;;;;;;;-143.21;100.00;72155.47;5112050;28;20866;-83
2023/05/18 07:47:36;;;;;;;16.97;12.37;;;;;;;-143.21;99.98;72149.53;5111812;28;20222;-82
2023/05/18 07:50:03;;;;;;;20.23;11.50;;;;;;;-143.21;98.58;72149.53;5111328;28;20192;-83
2023/05/18 07:52:30;;;;;;;15.07;11.07;;;;;;;-143.21;94.48;72143.56;5111290;28;20224;-82
2023/05/18 07:54:57;;;;;;;18.27;11.27;;;;;;;-143.21;93.04;72141.59;5111318;28;20230;-82
2023/05/18 07:57:24;;;;;;;17.70;11.73;;;;;;;-143.21;94.31;72137.63;5111028;28;20200;-82
2023/05/18 07:59:53;;;;;;;18.37;11.53;;;;;;;-143.21;95.04;72125.72;5110451;28;20230;-77
2023/05/18 08:02:19;;;;;;;17.30;11.70;;;;;;;-143.21;95.39;72133.66;5110429;28;20215;-77
2023/05/18 08:04:47;;;;;;;19.57;12.73;;;;;;;-143.21;94.73;72131.69;5110243;28;20670;-77
2023/05/18 08:07:13;;;;;;;20.50;12.57;;;;;;;-143.21;95.18;72133.66;5110014;28;20196;-79
2023/05/18 08:09:40;;;;;;;17.90;12.43;;;;;;;-143.21;95.88;72129.69;5110807;28;20196;-80
2023/05/18 08:12:08;;;;;;;18.77;12.80;;;;;;;-143.21;96.01;72135.63;5110971;28;20627;-80
2023/05/18 08:14:35;;;;;;;16.33;11.97;;;;;;;-143.21;94.65;72145.56;5111306;28;20207;-79
2023/05/18 08:17:03;;;;;;;18.23;11.83;;;;;;;-143.21;92.59;72177.28;5110752;28;20208;-79
2023/05/18 08:19:30;;;;;;;18.70;12.07;;;;;;;-143.21;93.48;72205.03;5110787;28;20323;-79
2023/05/18 08:21:57;;;;;;;23.50;13.20;;;;;;;-143.21;95.31;72230.81;5110923;28;20196;-77
2023/05/18 08:24:24;;;;;;;17.87;12.83;;;;;;;-143.21;96.98;72232.81;5110431;28;20196;-79
2023/05/18 08:26:51;;;;;;;20.80;13.80;;;;;;;-143.21;98.15;72238.75;5110770;28;20663;-79
2023/05/18 08:29:18;;;;;;;25.10;13.37;;;;;;;-143.21;98.90;72234.78;5111112;28;20227;-79
2023/05/18 08:31:45;;;;;;;19.77;13.40;;;;;;;-143.21;99.74;72218.94;5110953;28;20230;-79
2023/05/18 08:34:13;;;;;;;17.63;12.07;;;;;;;-143.21;98.88;72212.97;5110992;28;20196;-79
2023/05/18 08:36:43;;;;;;;23.23;13.23;;;;;;;-143.21;98.09;72207.03;5111026;28;20615;-79
2023/05/18 08:39:10;;;;;;;21.03;12.63;;;;;;;-143.21;96.59;72207.03;5110976;28;20235;-79
2023/05/18 08:41:42;;;;;;;14.57;11.83;;;;;;;-143.21;95.78;72205.03;5111234;28;20207;-80
2023/05/18 08:44:17;;;;;;;23.93;12.60;;;;;;;-143.21;95.22;72254.63;5110693;28;20204;-78
2023/05/18 08:46:47;;;;;;;18.97;11.20;;;;;;;-143.21;93.21;72288.34;5107292;28;20249;-78
2023/05/18 08:49:18;;;;;;;18.50;11.47;;;;;;;-143.21;95.02;72304.19;5110709;28;20216;-78
2023/05/18 08:51:47;;;;;;;15.30;9.43;;;;;;;-143.21;95.41;72300.25;5107267;28;20325;-78
2023/05/18 08:54:20;;;;;;;13.40;9.67;;;;;;;-143.21;92.00;72298.25;5110439;28;20207;-78
2023/05/18 08:56:48;;;;;;;16.83;9.57;;;;;;;-143.21;92.15;72300.25;5107506;28;20273;-78
2023/05/18 08:59:28;;;;;;;18.20;10.27;;;;;;;-143.21;92.27;72290.31;5106814;28;20199;-78
2023/05/18 09:01:56;;;;;;;16.00;9.53;;;;;;;-143.21;92.60;72272.47;5108474;28;20200;-80
2023/05/18 09:04:27;;;;;;;15.50;9.53;;;;;;;-143.21;91.26;72268.50;5110667;28;20618;-79
2023/05/18 09:06:55;;;;;;;17.80;10.40;;;;;;;-143.21;91.80;72274.47;5110580;28;20677;-78
2023/05/18 09:09:24;;;;;;;16.63;9.93;;;;;;;-143.21;91.41;72290.31;5109912;28;20200;-78
2023/05/18 09:11:51;;;;;;;17.93;10.63;;;;;;;-143.21;92.28;72312.13;5110562;28;20219;-79
2023/05/18 09:14:21;;;;;;;18.50;10.90;;;;;;;-143.21;93.86;72310.16;5111352;28;20204;-84
2023/05/18 09:16:48;;;;;;;13.43;10.73;;;;;;;-143.21;94.73;72308.16;5106781;28;20727;-78
2023/05/18 09:19:15;;;;;;;21.33;10.53;;;;;;;-143.21;94.31;72296.28;5106784;28;20231;-78
2023/05/18 09:21:43;;;;;;;17.33;11.23;;;;;;;-143.21;91.68;72300.25;5110000;28;20545;-78
2023/05/18 09:24:10;;;;;;;18.83;11.57;;;;;;;-143.21;90.82;72290.31;5109770;28;20207;-78
2023/05/18 09:26:38;;;;;;;19.67;11.27;;;;;;;-143.21;90.60;72280.41;5110003;28;20566;-80
2023/05/18 09:29:16;;;;;;;17.07;11.33;;;;;;;-143.21;90.48;72266.53;5108973;28;20622;-77
2023/05/18 09:31:46;;;;;;;16.63;12.10;;;;;;;-143.21;90.39;72260.56;5109804;28;20689;-76
2023/05/18 09:34:17;;;;;;;21.60;12.13;;;;;;;-143.21;89.64;72244.72;5109549;28;20196;-76
2023/05/18 09:36:52;;;;;;;18.43;11.50;;;;;;;-143.21;89.93;72244.72;5105825;28;20211;-77
2023/05/18 09:39:19;;;;;;;22.97;13.17;;;;;;;-143.21;89.42;72240.75;5106008;28;20226;-77
2023/05/18 09:41:46;;;;;;;15.63;11.50;;;;;;;-143.21;89.51;72242.72;5109726;28;20206;-77
2023/05/18 09:44:13;;;;;;;19.87;12.37;;;;;;;-143.21;89.47;72242.72;5109179;28;20207;-76
2023/05/18 09:46:43;;;;;;;17.60;13.00;;;;;;;-143.21;90.29;72234.78;5109512;28;20216;-77
2023/05/18 09:49:10;;;;;;;19.53;13.43;;;;;;;-143.21;92.27;72228.84;5109384;28;20203;-76
2023/05/18 09:51:38;;;;;;;17.00;11.00;;;;;;;-143.21;88.58;72270.50;5109706;28;20227;-79
2023/05/18 09:54:09;;;;;;;19.83;10.97;;;;;;;-143.21;88.00;72298.25;5109342;28;20200;-77
2023/05/18 09:56:37;;;;;;;15.23;11.03;;;;;;;-143.21;89.22;72339.91;5109229;28;20208;-77
2023/05/18 09:59:11;;;;;;;15.93;11.27;;;;;;;-143.21;89.85;72341.88;5109361;28;20207;-77
2023/05/18 10:01:40;;;;;;;15.90;10.93;;;;;;;-143.21;89.34;72345.84;5109564;28;20200;-78
2023/05/18 10:04:07;;;;;;;20.13;12.37;;;;;;;-143.21;91.95;72343.88;5110270;28;20215;-79
2023/05/18 10:06:33;;;;;;;22.47;10.80;;;;;;;-143.21;92.60;72355.75;5110049;28;20663;-79
2023/05/18 10:09:03;;;;;;;18.33;10.77;;;;;;;-143.21;91.79;72355.75;5109839;28;20587;-79
2023/05/18 10:11:33;;;;;;;14.87;10.47;;;;;;;-143.21;91.48;72345.84;5110149;28;20231;-79
2023/05/18 10:14:00;;;;;;;16.37;10.70;;;;;;;-143.21;91.35;72328.00;5109755;28;20231;-79
2023/05/18 10:16:27;;;;;;;13.50;9.87;;;;;;;-143.21;89.95;72312.13;5109647;28;20281;-80
2023/05/18 10:18:55;;;;;;;18.90;10.80;;;;;;;-143.21;88.96;72300.25;5109872;28;20232;-80
2023/05/18 10:21:28;;;;;;;22.20;11.00;;;;;;;-143.21;87.47;72294.28;5109750;28;20656;-79
2023/05/18 10:23:55;;;;;;;19.23;10.77;;;;;;;-143.21;88.09;72284.38;5109312;28;20619;-78
2023/05/18 10:26:25;;;;;;;18.83;10.93;;;;;;;-143.21;87.14;72276.44;5108482;28;20395;-78
2023/05/18 10:28:56;;;;;;;18.93;10.67;;;;;;;-143.21;86.88;72272.47;5110922;28;20212;-78
2023/05/18 10:31:25;;;;;;;21.80;10.47;;;;;;;-143.21;86.01;72260.56;5112725;28;20204;-78
2023/05/18 10:33:53;;;;;;;17.93;10.17;;;;;;;-143.21;85.50;72262.56;5112569;28;20204;-77
2023/05/18 10:36:24;;;;;;;15.33;10.13;;;;;;;-143.21;86.07;72268.50;5112233;28;20693;-79
2023/05/18 10:38:51;;;;;;;15.33;10.83;;;;;;;-143.21;85.80;72268.50;5112341;28;20697;-78
2023/05/18 10:41:22;;;;;;;14.47;9.93;;;;;;;-143.21;84.64;72262.56;5111975;28;20647;-78
2023/05/18 10:43:50;;;;;;;15.07;9.47;;;;;;;-143.21;83.99;72260.56;5108822;28;20227;-79
2023/05/18 10:46:20;;;;;;;14.97;10.23;;;;;;;-143.21;83.72;72254.63;5107963;28;20212;-77
2023/05/18 10:48:51;;;;;;;16.97;9.87;;;;;;;-143.21;84.21;72256.59;5109395;28;20208;-78
2023/05/18 10:51:20;;;;;;;15.23;10.10;;;;;;;-143.21;85.09;72258.59;5109694;28;20285;-79
2023/05/18 10:53:47;;;;;;;16.37;10.50;;;;;;;-143.21;84.75;72248.66;5110093;28;20260;-79
2023/05/18 10:56:15;;;;;;;13.83;9.33;;;;;;;-143.21;83.80;72242.72;5109330;28;20570;-80
2023/05/18 10:58:43;;;;;;;10.50;9.20;;;;;;;-143.21;84.07;72242.72;5113312;28;20264;-79
2023/05/18 11:01:12;;;;;;;20.13;10.60;;;;;;;-143.21;84.35;72264.53;5113018;28;20204;-78
2023/05/18 11:03:40;;;;;;;15.70;10.63;;;;;;;-143.21;87.12;72333.94;5112446;28;20204;-80
2023/05/18 11:06:14;;;;;;;20.83;11.77;;;;;;;-143.21;93.43;72395.44;5112334;28;20207;-79
2023/05/18 11:11:51;;;;;;;19.37;10.90;;;;;;;-143.21;94.02;72401.38;5111238;28;20207;-79
2023/05/18 11:14:25;;;;;;;12.83;10.00;;;;;;;-143.21;92.75;72389.47;5108072;28;20646;-76